Brownsburg, Canada
Current Conditions -  °F | °C
As of 3:00 AM on Friday 31 Oct 2014 (Local Time) from CYMX Reporting Station
Broken Clouds Broken Clouds  
Wind Chill: 36°   Ceiling: 4400
Heat Index: 36°   Visibility: 25mi
Dew Point: 28°   Wind: 3mph
Humidity: 75%   Direction: 320°NW
Pressure: 30.03"   Gusts: NA
Location:  45.68°N, 74.4°W
Report Text: CYMX 310700Z 32003KT 25SM BKN044 02/M02 A3003 RMK SC7 SLP172
Loading
Personal Weather Stations






























Interactive Weather Map
Tropical Storm Tracking
New forecast layout! Learn more

10-Day Weather Forecast

Advertisements
Track Severe Weather on mobile